createdAt,value
2023-05-12T00:01:07.677Z,21.84
2023-05-12T00:08:09.254Z,21.77
2023-05-12T00:15:10.951Z,21.53
2023-05-12T00:22:12.631Z,21.58
2023-05-12T00:29:14.223Z,21.65
2023-05-12T00:36:15.842Z,21.40
2023-05-12T00:43:17.527Z,21.27
2023-05-12T00:50:19.429Z,21.12
2023-05-12T00:57:22.628Z,21.05
2023-05-12T01:04:24.574Z,20.93
2023-05-12T01:11:26.898Z,20.87
2023-05-12T01:18:28.676Z,20.84
2023-05-12T01:25:31.954Z,20.80
2023-05-12T01:32:35.616Z,20.72
2023-05-12T01:39:38.882Z,20.65
2023-05-12T01:46:41.623Z,20.62
2023-05-12T01:53:43.451Z,20.48
2023-05-12T02:00:45.923Z,20.32
2023-05-12T02:07:52.207Z,20.30
2023-05-12T02:14:54.233Z,20.19
2023-05-12T02:21:56.129Z,20.10
2023-05-12T02:28:57.816Z,19.99
2023-05-12T02:35:59.568Z,19.92
2023-05-12T02:43:01.685Z,19.76
2023-05-12T02:50:04.048Z,19.64
2023-05-12T02:57:07.081Z,19.52
2023-05-12T03:04:08.823Z,19.41
2023-05-12T03:11:10.624Z,19.31
2023-05-12T03:18:12.534Z,19.21
2023-05-12T03:25:14.257Z,19.14
2023-05-12T03:32:16.690Z,19.10
2023-05-12T03:39:18.615Z,19.01
2023-05-12T03:46:20.942Z,18.98
2023-05-12T03:53:22.748Z,18.87
2023-05-12T04:00:25.528Z,18.87
2023-05-12T04:07:27.737Z,18.81
2023-05-12T04:14:41.607Z,18.80
2023-05-12T04:21:44.006Z,18.82
2023-05-12T04:28:45.712Z,18.77
2023-05-12T04:35:48.890Z,18.71
2023-05-12T04:42:51.127Z,18.85
2023-05-12T04:49:52.921Z,18.76
2023-05-12T04:56:54.552Z,18.90
2023-05-12T05:03:57.126Z,19.02
2023-05-12T05:10:59.018Z,18.99
2023-05-12T05:18:02.528Z,19.18
2023-05-12T05:25:05.269Z,19.14
2023-05-12T05:32:08.400Z,19.26
2023-05-12T05:39:11.177Z,19.33
2023-05-12T05:46:12.852Z,19.27
2023-05-12T05:53:15.599Z,19.63
2023-05-12T06:00:18.650Z,19.74
2023-05-12T06:07:24.358Z,19.51
2023-05-12T06:14:26.000Z,19.25
2023-05-12T06:21:30.175Z,19.25
2023-05-12T06:28:31.744Z,19.30
2023-05-12T06:35:33.547Z,19.39
2023-05-12T06:42:35.384Z,19.50
2023-05-12T06:49:43.618Z,19.47
2023-05-12T06:56:49.879Z,19.86
2023-05-12T07:03:51.663Z,19.79
2023-05-12T07:10:53.479Z,19.98
2023-05-12T07:17:55.853Z,20.24
2023-05-12T07:24:57.644Z,20.61
2023-05-12T07:31:59.294Z,20.69
2023-05-12T07:39:00.882Z,21.09
2023-05-12T07:46:02.903Z,21.24
2023-05-12T07:53:04.729Z,21.75
2023-05-12T08:00:07.206Z,22.38
2023-05-12T08:07:14.749Z,23.04
2023-05-12T08:14:18.352Z,23.56
2023-05-12T08:21:19.948Z,24.06
2023-05-12T08:28:21.930Z,24.70
2023-05-12T08:35:25.222Z,24.88
2023-05-12T08:42:43.044Z,25.50
2023-05-12T08:49:44.982Z,25.53
2023-05-12T09:03:52.757Z,27.02
2023-05-12T09:10:57.878Z,26.63
2023-05-12T09:17:59.687Z,27.38
2023-05-12T09:25:01.466Z,27.95
2023-05-12T09:32:04.034Z,28.56
2023-05-12T09:39:07.091Z,27.80
2023-05-12T09:46:09.857Z,28.97
2023-05-12T09:53:11.776Z,29.28
2023-05-12T10:00:31.139Z,29.64
2023-05-12T10:07:36.334Z,29.81
2023-05-12T10:14:38.105Z,31.12
2023-05-12T10:21:40.045Z,31.70
2023-05-12T10:28:42.879Z,32.35
2023-05-12T10:35:46.196Z,31.39
2023-05-12T10:42:49.658Z,31.78
2023-05-12T10:49:55.579Z,32.26
2023-05-12T10:57:02.173Z,32.82
2023-05-12T11:04:17.125Z,32.80
2023-05-12T11:11:20.073Z,34.42
2023-05-12T11:18:22.363Z,33.84
2023-05-12T11:25:26.644Z,34.36
2023-05-12T11:32:29.450Z,33.72
2023-05-12T11:39:32.358Z,34.93
2023-05-12T11:46:34.404Z,35.29
2023-05-12T11:53:40.266Z,34.49
2023-05-12T12:00:42.110Z,35.59
2023-05-12T12:07:43.694Z,35.56
2023-05-12T12:14:45.382Z,35.79
2023-05-12T12:21:46.990Z,36.29
2023-05-12T12:28:48.902Z,34.76
2023-05-12T12:35:50.649Z,36.42
2023-05-12T12:42:52.311Z,36.71
2023-05-12T12:49:53.909Z,35.58
2023-05-12T12:56:55.924Z,36.10
2023-05-12T13:03:57.614Z,36.79
2023-05-12T13:11:00.270Z,36.59
2023-05-12T13:18:01.908Z,36.34
2023-05-12T13:25:07.371Z,36.37
2023-05-12T13:32:08.998Z,36.80
2023-05-12T13:39:10.786Z,36.13
2023-05-12T13:46:12.480Z,36.57
2023-05-12T13:53:14.133Z,36.76
2023-05-12T14:00:17.537Z,36.75
2023-05-12T14:07:19.281Z,36.64
2023-05-12T14:14:20.987Z,36.24
2023-05-12T14:21:22.585Z,35.56
2023-05-12T14:28:24.377Z,35.88
2023-05-12T14:35:27.683Z,36.09
2023-05-12T14:42:30.349Z,35.77
2023-05-12T14:49:31.999Z,35.73
2023-05-12T14:56:34.781Z,35.24
2023-05-12T15:03:36.465Z,33.38
2023-05-12T15:10:38.174Z,34.12
2023-05-12T15:17:39.824Z,34.12
2023-05-12T15:24:42.731Z,33.31
2023-05-12T15:31:44.595Z,32.84
2023-05-12T15:38:47.305Z,32.93
2023-05-12T15:45:48.893Z,32.67
2023-05-12T15:52:50.713Z,31.12
2023-05-12T15:59:59.255Z,31.80
2023-05-12T16:07:00.896Z,31.18
2023-05-12T16:14:02.651Z,31.00
2023-05-12T16:21:05.238Z,31.33
2023-05-12T16:28:07.033Z,30.97
2023-05-12T16:35:09.025Z,30.38
2023-05-12T16:42:10.691Z,30.14
2023-05-12T16:49:12.493Z,29.85
2023-05-12T16:56:14.136Z,30.10
2023-05-12T17:03:15.885Z,29.43
2023-05-12T17:10:17.671Z,29.42
2023-05-12T17:17:19.406Z,29.27
2023-05-12T17:24:21.116Z,29.15
2023-05-12T17:31:22.933Z,28.89
2023-05-12T17:38:24.754Z,28.25
2023-05-12T17:45:27.579Z,28.26
2023-05-12T17:52:29.328Z,28.09
2023-05-12T17:59:31.260Z,27.78
2023-05-12T18:06:33.200Z,27.47
2023-05-12T18:13:34.963Z,27.56
2023-05-12T18:20:36.698Z,27.38
2023-05-12T18:27:38.462Z,27.08
2023-05-12T18:34:43.856Z,27.04
2023-05-12T18:41:45.601Z,26.47
2023-05-12T18:48:47.208Z,26.60
2023-05-12T18:55:49.753Z,26.52
2023-05-12T19:02:52.315Z,26.36
2023-05-12T19:09:53.937Z,26.21
2023-05-12T19:16:56.146Z,26.05
2023-05-12T19:23:57.944Z,25.82
2023-05-12T19:30:59.523Z,25.71
2023-05-12T19:38:01.131Z,25.45
2023-05-12T19:45:03.013Z,25.33
2023-05-12T19:52:04.914Z,25.27
2023-05-12T19:59:06.875Z,25.21
2023-05-12T20:06:08.525Z,25.12
2023-05-12T20:13:10.189Z,24.96
2023-05-12T20:20:12.129Z,24.87
2023-05-12T20:27:13.977Z,24.69
2023-05-12T20:34:15.666Z,24.53
2023-05-12T20:41:17.284Z,24.37
2023-05-12T20:48:19.237Z,24.27
2023-05-12T20:55:21.144Z,24.18
2023-05-12T21:02:26.846Z,24.02
2023-05-12T21:09:28.660Z,23.90
2023-05-12T21:16:30.597Z,23.91
2023-05-12T21:23:32.507Z,23.70
2023-05-12T21:30:36.169Z,23.61
2023-05-12T21:37:37.933Z,23.44
2023-05-12T21:44:39.571Z,23.35
2023-05-12T21:51:41.944Z,23.19
2023-05-12T21:58:43.553Z,23.04
2023-05-12T22:05:45.230Z,22.98
2023-05-12T22:12:46.971Z,22.80
2023-05-12T22:19:49.064Z,22.76
2023-05-12T22:26:50.686Z,22.59
2023-05-12T22:33:52.274Z,22.51
2023-05-12T22:40:54.053Z,22.43
2023-05-12T22:47:55.683Z,22.34
2023-05-12T22:54:57.255Z,22.10
2023-05-12T23:01:58.914Z,22.01
2023-05-12T23:09:00.955Z,22.03
2023-05-12T23:16:02.517Z,22.01
2023-05-12T23:23:04.109Z,21.83
2023-05-12T23:30:06.524Z,21.82
2023-05-12T23:37:08.332Z,21.50
2023-05-12T23:44:10.078Z,21.58
2023-05-12T23:51:11.754Z,21.55
2023-05-12T23:58:13.491Z,21.39
